sensor_id;sensor_type;location;lat;lon;timestamp;P1;durP1;ratioP1;P2;durP2;ratioP2
15635;SDS011;7917;50.818;6.972;2023-05-10T00:00:06;13.05;;;9.30;;
15635;SDS011;7917;50.818;6.972;2023-05-10T00:02:35;13.20;;;9.55;;
15635;SDS011;7917;50.818;6.972;2023-05-10T00:05:02;12.65;;;9.73;;
15635;SDS011;7917;50.818;6.972;2023-05-10T00:07:29;11.90;;;9.25;;
15635;SDS011;7917;50.818;6.972;2023-05-10T00:09:55;12.15;;;9.30;;
15635;SDS011;7917;50.818;6.972;2023-05-10T00:12:23;13.55;;;10.25;;
15635;SDS011;7917;50.818;6.972;2023-05-10T00:14:50;11.60;;;9.57;;
15635;SDS011;7917;50.818;6.972;2023-05-10T00:17:16;12.73;;;9.30;;
15635;SDS011;7917;50.818;6.972;2023-05-10T00:19:43;11.43;;;8.80;;
15635;SDS011;7917;50.818;6.972;2023-05-10T00:22:10;14.00;;;9.35;;
15635;SDS011;7917;50.818;6.972;2023-05-10T00:24:37;13.90;;;9.80;;
15635;SDS011;7917;50.818;6.972;2023-05-10T00:27:03;11.95;;;8.88;;
15635;SDS011;7917;50.818;6.972;2023-05-10T00:29:32;14.10;;;9.80;;
15635;SDS011;7917;50.818;6.972;2023-05-10T00:31:58;13.82;;;9.13;;
15635;SDS011;7917;50.818;6.972;2023-05-10T00:34:25;11.63;;;8.55;;
15635;SDS011;7917;50.818;6.972;2023-05-10T00:36:52;11.45;;;8.73;;
15635;SDS011;7917;50.818;6.972;2023-05-10T00:39:19;10.45;;;7.93;;
15635;SDS011;7917;50.818;6.972;2023-05-10T00:41:45;12.57;;;8.82;;
15635;SDS011;7917;50.818;6.972;2023-05-10T00:44:12;11.70;;;8.75;;
15635;SDS011;7917;50.818;6.972;2023-05-10T00:46:40;12.23;;;9.18;;
15635;SDS011;7917;50.818;6.972;2023-05-10T00:49:07;11.50;;;8.25;;
15635;SDS011;7917;50.818;6.972;2023-05-10T00:51:33;10.93;;;7.68;;
15635;SDS011;7917;50.818;6.972;2023-05-10T00:54:00;11.40;;;7.88;;
15635;SDS011;7917;50.818;6.972;2023-05-10T00:56:28;10.43;;;7.72;;
15635;SDS011;7917;50.818;6.972;2023-05-10T00:59:11;11.07;;;8.25;;
15635;SDS011;7917;50.818;6.972;2023-05-10T01:01:38;8.88;;;6.95;;
15635;SDS011;7917;50.818;6.972;2023-05-10T01:04:05;10.82;;;7.70;;
15635;SDS011;7917;50.818;6.972;2023-05-10T01:06:32;9.85;;;7.45;;
15635;SDS011;7917;50.818;6.972;2023-05-10T01:09:14;9.05;;;7.70;;
15635;SDS011;7917;50.818;6.972;2023-05-10T01:11:41;8.45;;;6.95;;
15635;SDS011;7917;50.818;6.972;2023-05-10T01:14:09;10.77;;;7.65;;
15635;SDS011;7917;50.818;6.972;2023-05-10T01:16:36;11.70;;;7.75;;
15635;SDS011;7917;50.818;6.972;2023-05-10T01:19:17;10.85;;;7.78;;
15635;SDS011;7917;50.818;6.972;2023-05-10T01:21:49;12.50;;;7.80;;
15635;SDS011;7917;50.818;6.972;2023-05-10T01:24:31;8.95;;;7.00;;
15635;SDS011;7917;50.818;6.972;2023-05-10T01:27:32;10.15;;;6.82;;
15635;SDS011;7917;50.818;6.972;2023-05-10T01:30:35;7.72;;;5.82;;
15635;SDS011;7917;50.818;6.972;2023-05-10T01:33:41;6.15;;;4.80;;
15635;SDS011;7917;50.818;6.972;2023-05-10T01:36:15;6.38;;;4.85;;
15635;SDS011;7917;50.818;6.972;2023-05-10T01:39:08;9.82;;;4.78;;
15635;SDS011;7917;50.818;6.972;2023-05-10T01:41:43;7.13;;;5.15;;
15635;SDS011;7917;50.818;6.972;2023-05-10T01:44:16;7.47;;;4.65;;
15635;SDS011;7917;50.818;6.972;2023-05-10T01:46:47;5.57;;;4.30;;
15635;SDS011;7917;50.818;6.972;2023-05-10T01:49:20;6.60;;;4.30;;
15635;SDS011;7917;50.818;6.972;2023-05-10T01:51:50;5.47;;;4.60;;
15635;SDS011;7917;50.818;6.972;2023-05-10T01:54:20;5.70;;;3.95;;
15635;SDS011;7917;50.818;6.972;2023-05-10T01:56:50;6.10;;;4.13;;
15635;SDS011;7917;50.818;6.972;2023-05-10T01:59:23;8.77;;;5.10;;
15635;SDS011;7917;50.818;6.972;2023-05-10T02:01:56;5.82;;;3.95;;
15635;SDS011;7917;50.818;6.972;2023-05-10T02:04:25;6.20;;;4.60;;
15635;SDS011;7917;50.818;6.972;2023-05-10T02:06:54;5.85;;;4.13;;
15635;SDS011;7917;50.818;6.972;2023-05-10T02:09:22;6.55;;;4.35;;
15635;SDS011;7917;50.818;6.972;2023-05-10T02:11:51;7.60;;;4.65;;
15635;SDS011;7917;50.818;6.972;2023-05-10T02:14:20;6.88;;;4.43;;
15635;SDS011;7917;50.818;6.972;2023-05-10T02:16:49;5.35;;;4.68;;
15635;SDS011;7917;50.818;6.972;2023-05-10T02:19:17;10.35;;;4.80;;
15635;SDS011;7917;50.818;6.972;2023-05-10T02:21:46;7.03;;;4.95;;
15635;SDS011;7917;50.818;6.972;2023-05-10T02:24:16;10.13;;;5.55;;
15635;SDS011;7917;50.818;6.972;2023-05-10T02:26:44;9.32;;;5.43;;
15635;SDS011;7917;50.818;6.972;2023-05-10T02:29:13;8.48;;;5.53;;
15635;SDS011;7917;50.818;6.972;2023-05-10T02:31:42;8.25;;;5.57;;
15635;SDS011;7917;50.818;6.972;2023-05-10T02:34:09;9.25;;;5.57;;
15635;SDS011;7917;50.818;6.972;2023-05-10T02:36:37;6.68;;;5.65;;
15635;SDS011;7917;50.818;6.972;2023-05-10T02:39:06;11.40;;;6.32;;
15635;SDS011;7917;50.818;6.972;2023-05-10T02:41:35;9.52;;;6.88;;
15635;SDS011;7917;50.818;6.972;2023-05-10T02:44:03;9.63;;;7.10;;
15635;SDS011;7917;50.818;6.972;2023-05-10T02:46:38;12.13;;;7.75;;
15635;SDS011;7917;50.818;6.972;2023-05-10T02:49:04;11.25;;;7.97;;
15635;SDS011;7917;50.818;6.972;2023-05-10T02:51:32;15.85;;;8.90;;
15635;SDS011;7917;50.818;6.972;2023-05-10T02:54:07;11.55;;;8.57;;
15635;SDS011;7917;50.818;6.972;2023-05-10T02:56:40;13.13;;;8.55;;
15635;SDS011;7917;50.818;6.972;2023-05-10T02:59:08;14.68;;;10.02;;
15635;SDS011;7917;50.818;6.972;2023-05-10T03:01:36;17.00;;;10.55;;
15635;SDS011;7917;50.818;6.972;2023-05-10T03:04:03;14.55;;;9.98;;
15635;SDS011;7917;50.818;6.972;2023-05-10T03:06:30;17.17;;;10.48;;
15635;SDS011;7917;50.818;6.972;2023-05-10T03:08:57;16.05;;;10.77;;
15635;SDS011;7917;50.818;6.972;2023-05-10T03:11:30;15.55;;;11.25;;
15635;SDS011;7917;50.818;6.972;2023-05-10T03:14:15;20.17;;;12.23;;
15635;SDS011;7917;50.818;6.972;2023-05-10T03:16:52;16.77;;;11.55;;
15635;SDS011;7917;50.818;6.972;2023-05-10T03:19:25;17.67;;;11.20;;
15635;SDS011;7917;50.818;6.972;2023-05-10T03:21:56;14.35;;;10.13;;
15635;SDS011;7917;50.818;6.972;2023-05-10T03:24:28;20.83;;;12.18;;
15635;SDS011;7917;50.818;6.972;2023-05-10T03:26:59;18.80;;;11.35;;
15635;SDS011;7917;50.818;6.972;2023-05-10T03:29:28;18.50;;;12.30;;
15635;SDS011;7917;50.818;6.972;2023-05-10T03:32:11;18.88;;;11.25;;
15635;SDS011;7917;50.818;6.972;2023-05-10T03:34:41;19.40;;;10.65;;
15635;SDS011;7917;50.818;6.972;2023-05-10T03:37:08;17.83;;;11.93;;
15635;SDS011;7917;50.818;6.972;2023-05-10T03:39:34;17.48;;;11.27;;
15635;SDS011;7917;50.818;6.972;2023-05-10T03:42:02;17.40;;;10.25;;
15635;SDS011;7917;50.818;6.972;2023-05-10T03:44:29;17.27;;;10.48;;
15635;SDS011;7917;50.818;6.972;2023-05-10T03:46:56;18.17;;;10.68;;
15635;SDS011;7917;50.818;6.972;2023-05-10T03:49:22;22.13;;;10.95;;
15635;SDS011;7917;50.818;6.972;2023-05-10T03:51:49;19.17;;;10.57;;
15635;SDS011;7917;50.818;6.972;2023-05-10T03:57:22;18.42;;;10.93;;
15635;SDS011;7917;50.818;6.972;2023-05-10T04:03:18;19.65;;;11.35;;
15635;SDS011;7917;50.818;6.972;2023-05-10T04:08:45;23.42;;;12.30;;
15635;SDS011;7917;50.818;6.972;2023-05-10T04:11:12;18.73;;;11.80;;
15635;SDS011;7917;50.818;6.972;2023-05-10T04:13:40;19.85;;;12.57;;
15635;SDS011;7917;50.818;6.972;2023-05-10T04:16:07;20.13;;;13.73;;
15635;SDS011;7917;50.818;6.972;2023-05-10T04:27:44;23.02;;;15.07;;
15635;SDS011;7917;50.818;6.972;2023-05-10T04:33:29;25.60;;;16.50;;
15635;SDS011;7917;50.818;6.972;2023-05-10T04:35:56;25.75;;;15.05;;
15635;SDS011;7917;50.818;6.972;2023-05-10T04:45:34;23.17;;;15.65;;
15635;SDS011;7917;50.818;6.972;2023-05-10T04:48:24;27.05;;;17.30;;
15635;SDS011;7917;50.818;6.972;2023-05-10T04:51:00;28.20;;;17.63;;
15635;SDS011;7917;50.818;6.972;2023-05-10T04:53:31;29.23;;;18.63;;
15635;SDS011;7917;50.818;6.972;2023-05-10T04:59:22;27.02;;;16.50;;
15635;SDS011;7917;50.818;6.972;2023-05-10T05:01:53;26.08;;;17.27;;
15635;SDS011;7917;50.818;6.972;2023-05-10T05:10:38;28.70;;;17.92;;
15635;SDS011;7917;50.818;6.972;2023-05-10T05:16:12;22.77;;;17.65;;
15635;SDS011;7917;50.818;6.972;2023-05-10T05:18:41;30.38;;;17.48;;
15635;SDS011;7917;50.818;6.972;2023-05-10T05:21:14;24.73;;;16.77;;
15635;SDS011;7917;50.818;6.972;2023-05-10T05:31:03;27.90;;;18.15;;
15635;SDS011;7917;50.818;6.972;2023-05-10T05:42:55;26.88;;;15.95;;
15635;SDS011;7917;50.818;6.972;2023-05-10T05:48:55;23.80;;;16.52;;
15635;SDS011;7917;50.818;6.972;2023-05-10T05:51:21;24.38;;;16.23;;
15635;SDS011;7917;50.818;6.972;2023-05-10T05:53:48;25.80;;;17.30;;
15635;SDS011;7917;50.818;6.972;2023-05-10T05:56:15;23.55;;;15.32;;
15635;SDS011;7917;50.818;6.972;2023-05-10T05:58:42;25.70;;;16.13;;
15635;SDS011;7917;50.818;6.972;2023-05-10T06:01:10;20.67;;;15.32;;
15635;SDS011;7917;50.818;6.972;2023-05-10T06:03:36;24.33;;;15.40;;
15635;SDS011;7917;50.818;6.972;2023-05-10T06:06:04;24.40;;;16.00;;
15635;SDS011;7917;50.818;6.972;2023-05-10T06:08:32;21.23;;;14.40;;
15635;SDS011;7917;50.818;6.972;2023-05-10T06:10:59;19.70;;;12.48;;
15635;SDS011;7917;50.818;6.972;2023-05-10T06:13:25;18.23;;;13.75;;
15635;SDS011;7917;50.818;6.972;2023-05-10T06:15:57;20.40;;;13.80;;
15635;SDS011;7917;50.818;6.972;2023-05-10T06:18:24;23.45;;;14.63;;
15635;SDS011;7917;50.818;6.972;2023-05-10T06:20:50;19.73;;;13.73;;
15635;SDS011;7917;50.818;6.972;2023-05-10T06:23:18;21.48;;;13.00;;
15635;SDS011;7917;50.818;6.972;2023-05-10T06:25:44;23.33;;;13.98;;
15635;SDS011;7917;50.818;6.972;2023-05-10T06:28:11;18.20;;;12.98;;
15635;SDS011;7917;50.818;6.972;2023-05-10T06:30:38;18.58;;;11.80;;
15635;SDS011;7917;50.818;6.972;2023-05-10T06:33:05;15.75;;;11.18;;
15635;SDS011;7917;50.818;6.972;2023-05-10T06:35:31;21.27;;;12.07;;
15635;SDS011;7917;50.818;6.972;2023-05-10T06:37:59;17.80;;;10.25;;
15635;SDS011;7917;50.818;6.972;2023-05-10T06:40:27;14.57;;;10.55;;
15635;SDS011;7917;50.818;6.972;2023-05-10T06:42:54;18.95;;;9.88;;
15635;SDS011;7917;50.818;6.972;2023-05-10T06:45:21;13.43;;;9.75;;
15635;SDS011;7917;50.818;6.972;2023-05-10T06:47:47;14.85;;;9.90;;
15635;SDS011;7917;50.818;6.972;2023-05-10T06:50:14;13.88;;;10.23;;
15635;SDS011;7917;50.818;6.972;2023-05-10T06:52:41;16.38;;;10.35;;
15635;SDS011;7917;50.818;6.972;2023-05-10T06:55:08;14.32;;;10.15;;
15635;SDS011;7917;50.818;6.972;2023-05-10T06:57:36;10.90;;;8.55;;
15635;SDS011;7917;50.818;6.972;2023-05-10T07:00:03;18.27;;;9.52;;
15635;SDS011;7917;50.818;6.972;2023-05-10T07:02:30;19.23;;;8.75;;
15635;SDS011;7917;50.818;6.972;2023-05-10T07:04:57;13.73;;;9.18;;
15635;SDS011;7917;50.818;6.972;2023-05-10T07:07:25;13.90;;;9.75;;
15635;SDS011;7917;50.818;6.972;2023-05-10T07:09:52;12.73;;;8.55;;
15635;SDS011;7917;50.818;6.972;2023-05-10T07:12:18;11.07;;;7.72;;
15635;SDS011;7917;50.818;6.972;2023-05-10T07:14:47;12.70;;;8.00;;
15635;SDS011;7917;50.818;6.972;2023-05-10T07:17:13;9.55;;;7.65;;
15635;SDS011;7917;50.818;6.972;2023-05-10T07:19:40;14.43;;;8.25;;
15635;SDS011;7917;50.818;6.972;2023-05-10T07:22:07;10.43;;;7.30;;
15635;SDS011;7917;50.818;6.972;2023-05-10T07:24:33;16.15;;;7.97;;
15635;SDS011;7917;50.818;6.972;2023-05-10T07:27:00;10.38;;;7.22;;
15635;SDS011;7917;50.818;6.972;2023-05-10T07:29:27;11.00;;;7.95;;
15635;SDS011;7917;50.818;6.972;2023-05-10T07:31:56;14.20;;;8.52;;
15635;SDS011;7917;50.818;6.972;2023-05-10T07:34:23;13.32;;;7.82;;
15635;SDS011;7917;50.818;6.972;2023-05-10T07:36:49;12.48;;;7.90;;
15635;SDS011;7917;50.818;6.972;2023-05-10T07:39:17;14.30;;;7.28;;
15635;SDS011;7917;50.818;6.972;2023-05-10T07:41:45;14.05;;;8.23;;
15635;SDS011;7917;50.818;6.972;2023-05-10T07:44:12;12.52;;;8.25;;
15635;SDS011;7917;50.818;6.972;2023-05-10T07:46:39;13.07;;;8.02;;
15635;SDS011;7917;50.818;6.972;2023-05-10T07:49:07;11.27;;;8.30;;
15635;SDS011;7917;50.818;6.972;2023-05-10T07:51:34;14.45;;;7.93;;
15635;SDS011;7917;50.818;6.972;2023-05-10T07:54:00;12.00;;;6.57;;
15635;SDS011;7917;50.818;6.972;2023-05-10T07:56:28;13.05;;;8.15;;
15635;SDS011;7917;50.818;6.972;2023-05-10T07:58:57;12.38;;;7.65;;
15635;SDS011;7917;50.818;6.972;2023-05-10T08:01:25;13.25;;;8.00;;
15635;SDS011;7917;50.818;6.972;2023-05-10T08:03:52;13.85;;;7.43;;
15635;SDS011;7917;50.818;6.972;2023-05-10T08:06:19;15.80;;;7.07;;
15635;SDS011;7917;50.818;6.972;2023-05-10T08:08:47;11.73;;;6.35;;
15635;SDS011;7917;50.818;6.972;2023-05-10T08:11:15;13.30;;;6.28;;
15635;SDS011;7917;50.818;6.972;2023-05-10T08:13:43;11.38;;;6.38;;
15635;SDS011;7917;50.818;6.972;2023-05-10T08:16:10;14.30;;;6.10;;
15635;SDS011;7917;50.818;6.972;2023-05-10T08:18:36;11.10;;;6.07;;
15635;SDS011;7917;50.818;6.972;2023-05-10T08:21:03;12.20;;;7.32;;
15635;SDS011;7917;50.818;6.972;2023-05-10T08:23:31;9.32;;;5.93;;
15635;SDS011;7917;50.818;6.972;2023-05-10T08:36:22;6.70;;;4.22;;
15635;SDS011;7917;50.818;6.972;2023-05-10T08:38:50;6.68;;;3.92;;
15635;SDS011;7917;50.818;6.972;2023-05-10T08:41:17;4.53;;;4.00;;
15635;SDS011;7917;50.818;6.972;2023-05-10T08:43:46;4.18;;;2.38;;
15635;SDS011;7917;50.818;6.972;2023-05-10T08:46:13;1.35;;;1.15;;
15635;SDS011;7917;50.818;6.972;2023-05-10T08:48:43;1.15;;;0.80;;
15635;SDS011;7917;50.818;6.972;2023-05-10T08:51:12;2.45;;;1.05;;
15635;SDS011;7917;50.818;6.972;2023-05-10T08:53:40;2.25;;;0.93;;
15635;SDS011;7917;50.818;6.972;2023-05-10T08:56:08;1.67;;;0.88;;
15635;SDS011;7917;50.818;6.972;2023-05-10T08:58:35;1.30;;;1.20;;
15635;SDS011;7917;50.818;6.972;2023-05-10T09:01:02;1.20;;;1.10;;
15635;SDS011;7917;50.818;6.972;2023-05-10T09:03:30;1.30;;;0.98;;
15635;SDS011;7917;50.818;6.972;2023-05-10T09:05:57;1.90;;;1.13;;
15635;SDS011;7917;50.818;6.972;2023-05-10T09:08:26;3.92;;;1.20;;
15635;SDS011;7917;50.818;6.972;2023-05-10T09:10:52;2.88;;;1.10;;
15635;SDS011;7917;50.818;6.972;2023-05-10T09:13:21;2.35;;;1.48;;
15635;SDS011;7917;50.818;6.972;2023-05-10T09:15:49;2.00;;;1.58;;
15635;SDS011;7917;50.818;6.972;2023-05-10T09:18:17;2.85;;;1.27;;
15635;SDS011;7917;50.818;6.972;2023-05-10T09:20:44;2.30;;;1.50;;
15635;SDS011;7917;50.818;6.972;2023-05-10T09:23:11;1.77;;;1.30;;
15635;SDS011;7917;50.818;6.972;2023-05-10T09:25:37;4.25;;;2.55;;
15635;SDS011;7917;50.818;6.972;2023-05-10T09:28:06;1.60;;;1.50;;
15635;SDS011;7917;50.818;6.972;2023-05-10T09:30:35;3.72;;;1.25;;
15635;SDS011;7917;50.818;6.972;2023-05-10T09:33:02;3.70;;;1.85;;
15635;SDS011;7917;50.818;6.972;2023-05-10T09:35:29;2.63;;;1.80;;
15635;SDS011;7917;50.818;6.972;2023-05-10T09:38:02;5.47;;;2.80;;
15635;SDS011;7917;50.818;6.972;2023-05-10T09:40:30;3.80;;;2.72;;
15635;SDS011;7917;50.818;6.972;2023-05-10T09:42:58;4.82;;;3.70;;
15635;SDS011;7917;50.818;6.972;2023-05-10T09:45:26;6.75;;;4.78;;
15635;SDS011;7917;50.818;6.972;2023-05-10T09:47:54;7.72;;;5.45;;
15635;SDS011;7917;50.818;6.972;2023-05-10T09:50:22;9.35;;;5.82;;
15635;SDS011;7917;50.818;6.972;2023-05-10T09:52:50;12.20;;;7.15;;
15635;SDS011;7917;50.818;6.972;2023-05-10T09:55:18;11.13;;;7.35;;
15635;SDS011;7917;50.818;6.972;2023-05-10T09:57:47;13.02;;;8.00;;
15635;SDS011;7917;50.818;6.972;2023-05-10T10:00:17;11.93;;;8.68;;
15635;SDS011;7917;50.818;6.972;2023-05-10T10:02:56;18.15;;;10.00;;
15635;SDS011;7917;50.818;6.972;2023-05-10T10:05:27;16.67;;;10.35;;
15635;SDS011;7917;50.818;6.972;2023-05-10T10:07:55;15.02;;;10.25;;
15635;SDS011;7917;50.818;6.972;2023-05-10T10:10:22;18.85;;;11.70;;
15635;SDS011;7917;50.818;6.972;2023-05-10T10:12:50;16.98;;;10.60;;
15635;SDS011;7917;50.818;6.972;2023-05-10T10:15:17;14.65;;;10.10;;
15635;SDS011;7917;50.818;6.972;2023-05-10T10:17:44;14.07;;;10.27;;
15635;SDS011;7917;50.818;6.972;2023-05-10T10:20:12;16.05;;;10.30;;
15635;SDS011;7917;50.818;6.972;2023-05-10T10:22:39;14.70;;;10.18;;
15635;SDS011;7917;50.818;6.972;2023-05-10T10:25:07;16.17;;;9.88;;
15635;SDS011;7917;50.818;6.972;2023-05-10T10:27:38;13.93;;;9.10;;
15635;SDS011;7917;50.818;6.972;2023-05-10T10:30:13;16.08;;;9.40;;
15635;SDS011;7917;50.818;6.972;2023-05-10T10:32:59;12.52;;;8.75;;
15635;SDS011;7917;50.818;6.972;2023-05-10T10:35:37;12.88;;;8.60;;
15635;SDS011;7917;50.818;6.972;2023-05-10T10:38:05;14.73;;;9.05;;
15635;SDS011;7917;50.818;6.972;2023-05-10T10:40:34;9.77;;;6.82;;
15635;SDS011;7917;50.818;6.972;2023-05-10T10:48:47;12.50;;;6.45;;
15635;SDS011;7917;50.818;6.972;2023-05-10T10:51:17;7.88;;;5.85;;
15635;SDS011;7917;50.818;6.972;2023-05-10T10:53:43;6.53;;;4.75;;
15635;SDS011;7917;50.818;6.972;2023-05-10T10:56:13;6.05;;;4.20;;
15635;SDS011;7917;50.818;6.972;2023-05-10T11:01:52;4.75;;;3.55;;
15635;SDS011;7917;50.818;6.972;2023-05-10T11:04:19;6.22;;;2.60;;
15635;SDS011;7917;50.818;6.972;2023-05-10T11:06:46;3.97;;;2.60;;
15635;SDS011;7917;50.818;6.972;2023-05-10T11:09:13;2.92;;;2.63;;
15635;SDS011;7917;50.818;6.972;2023-05-10T11:11:50;3.13;;;2.53;;
15635;SDS011;7917;50.818;6.972;2023-05-10T11:14:19;3.88;;;2.28;;
15635;SDS011;7917;50.818;6.972;2023-05-10T11:16:47;2.83;;;2.13;;
15635;SDS011;7917;50.818;6.972;2023-05-10T11:19:14;2.40;;;2.20;;
15635;SDS011;7917;50.818;6.972;2023-05-10T11:21:46;2.10;;;1.90;;
15635;SDS011;7917;50.818;6.972;2023-05-10T11:24:14;2.38;;;1.85;;
15635;SDS011;7917;50.818;6.972;2023-05-10T11:26:43;2.28;;;2.00;;
15635;SDS011;7917;50.818;6.972;2023-05-10T11:29:09;1.50;;;1.40;;
15635;SDS011;7917;50.818;6.972;2023-05-10T11:31:41;4.00;;;1.50;;
15635;SDS011;7917;50.818;6.972;2023-05-10T11:34:09;1.63;;;1.30;;
15635;SDS011;7917;50.818;6.972;2023-05-10T11:36:36;3.45;;;1.70;;
15635;SDS011;7917;50.818;6.972;2023-05-10T11:39:04;1.80;;;1.63;;
15635;SDS011;7917;50.818;6.972;2023-05-10T11:41:31;1.65;;;1.52;;
15635;SDS011;7917;50.818;6.972;2023-05-10T11:43:58;2.30;;;1.85;;
15635;SDS011;7917;50.818;6.972;2023-05-10T11:46:26;3.00;;;2.10;;
15635;SDS011;7917;50.818;6.972;2023-05-10T11:48:56;3.50;;;1.90;;
15635;SDS011;7917;50.818;6.972;2023-05-10T11:51:26;2.65;;;1.40;;
15635;SDS011;7917;50.818;6.972;2023-05-10T11:53:54;3.45;;;1.98;;
15635;SDS011;7917;50.818;6.972;2023-05-10T11:56:23;3.72;;;2.00;;
15635;SDS011;7917;50.818;6.972;2023-05-10T11:58:54;1.80;;;1.40;;
15635;SDS011;7917;50.818;6.972;2023-05-10T12:01:22;2.13;;;1.33;;
15635;SDS011;7917;50.818;6.972;2023-05-10T12:03:49;4.72;;;1.50;;
15635;SDS011;7917;50.818;6.972;2023-05-10T12:06:17;1.55;;;1.00;;
15635;SDS011;7917;50.818;6.972;2023-05-10T12:08:45;1.70;;;1.27;;
15635;SDS011;7917;50.818;6.972;2023-05-10T12:11:12;1.40;;;1.30;;
15635;SDS011;7917;50.818;6.972;2023-05-10T12:13:43;2.53;;;1.20;;
15635;SDS011;7917;50.818;6.972;2023-05-10T12:16:15;2.35;;;1.20;;
15635;SDS011;7917;50.818;6.972;2023-05-10T12:18:42;1.35;;;1.25;;
15635;SDS011;7917;50.818;6.972;2023-05-10T12:21:10;2.33;;;1.65;;
15635;SDS011;7917;50.818;6.972;2023-05-10T12:23:37;1.60;;;1.40;;
15635;SDS011;7917;50.818;6.972;2023-05-10T12:26:04;1.50;;;1.40;;
15635;SDS011;7917;50.818;6.972;2023-05-10T12:28:32;2.38;;;1.45;;
15635;SDS011;7917;50.818;6.972;2023-05-10T12:31:14;1.38;;;1.27;;
15635;SDS011;7917;50.818;6.972;2023-05-10T12:33:42;1.63;;;1.20;;
15635;SDS011;7917;50.818;6.972;2023-05-10T12:36:10;4.80;;;1.00;;
15635;SDS011;7917;50.818;6.972;2023-05-10T12:38:38;2.88;;;0.80;;
15635;SDS011;7917;50.818;6.972;2023-05-10T12:41:08;2.00;;;0.90;;
15635;SDS011;7917;50.818;6.972;2023-05-10T12:43:37;1.50;;;1.35;;
15635;SDS011;7917;50.818;6.972;2023-05-10T12:46:04;3.22;;;1.35;;
15635;SDS011;7917;50.818;6.972;2023-05-10T12:48:32;2.72;;;1.40;;
15635;SDS011;7917;50.818;6.972;2023-05-10T12:51:00;1.40;;;1.30;;
15635;SDS011;7917;50.818;6.972;2023-05-10T12:53:27;3.70;;;1.77;;
15635;SDS011;7917;50.818;6.972;2023-05-10T12:55:57;2.00;;;1.80;;
15635;SDS011;7917;50.818;6.972;2023-05-10T12:58:26;1.50;;;1.40;;
15635;SDS011;7917;50.818;6.972;2023-05-10T13:00:53;2.42;;;1.50;;
15635;SDS011;7917;50.818;6.972;2023-05-10T13:03:21;3.72;;;1.10;;
15635;SDS011;7917;50.818;6.972;2023-05-10T13:05:49;1.65;;;1.45;;
15635;SDS011;7917;50.818;6.972;2023-05-10T13:08:15;2.70;;;1.30;;
15635;SDS011;7917;50.818;6.972;2023-05-10T13:10:42;1.77;;;1.40;;
15635;SDS011;7917;50.818;6.972;2023-05-10T13:13:09;3.28;;;1.30;;
15635;SDS011;7917;50.818;6.972;2023-05-10T13:15:36;5.35;;;1.17;;
15635;SDS011;7917;50.818;6.972;2023-05-10T13:18:03;2.33;;;1.15;;
15635;SDS011;7917;50.818;6.972;2023-05-10T13:20:30;3.45;;;1.33;;
15635;SDS011;7917;50.818;6.972;2023-05-10T13:22:57;5.07;;;1.50;;
15635;SDS011;7917;50.818;6.972;2023-05-10T13:25:24;5.07;;;1.35;;
15635;SDS011;7917;50.818;6.972;2023-05-10T13:27:52;3.38;;;1.40;;
15635;SDS011;7917;50.818;6.972;2023-05-10T13:30:19;2.88;;;1.77;;
15635;SDS011;7917;50.818;6.972;2023-05-10T13:32:45;3.10;;;1.50;;
15635;SDS011;7917;50.818;6.972;2023-05-10T13:35:12;1.70;;;1.23;;
15635;SDS011;7917;50.818;6.972;2023-05-10T13:37:39;2.95;;;1.30;;
15635;SDS011;7917;50.818;6.972;2023-05-10T13:40:07;1.30;;;1.00;;
15635;SDS011;7917;50.818;6.972;2023-05-10T13:42:35;1.70;;;1.10;;
15635;SDS011;7917;50.818;6.972;2023-05-10T13:45:01;1.27;;;1.17;;
15635;SDS011;7917;50.818;6.972;2023-05-10T13:47:28;2.60;;;1.30;;
15635;SDS011;7917;50.818;6.972;2023-05-10T13:49:57;3.15;;;1.42;;
15635;SDS011;7917;50.818;6.972;2023-05-10T13:52:23;2.42;;;1.05;;
15635;SDS011;7917;50.818;6.972;2023-05-10T13:54:50;2.92;;;1.20;;
15635;SDS011;7917;50.818;6.972;2023-05-10T13:57:21;1.75;;;0.90;;
15635;SDS011;7917;50.818;6.972;2023-05-10T13:59:49;4.53;;;1.10;;
15635;SDS011;7917;50.818;6.972;2023-05-10T14:02:16;1.33;;;1.00;;
15635;SDS011;7917;50.818;6.972;2023-05-10T14:04:42;1.42;;;1.13;;
15635;SDS011;7917;50.818;6.972;2023-05-10T14:07:09;1.15;;;1.05;;
15635;SDS011;7917;50.818;6.972;2023-05-10T14:09:36;3.20;;;1.10;;
15635;SDS011;7917;50.818;6.972;2023-05-10T14:12:03;1.08;;;0.80;;
15635;SDS011;7917;50.818;6.972;2023-05-10T14:14:30;1.65;;;1.10;;
15635;SDS011;7917;50.818;6.972;2023-05-10T14:16:57;2.53;;;1.08;;
15635;SDS011;7917;50.818;6.972;2023-05-10T14:19:25;5.93;;;0.98;;
15635;SDS011;7917;50.818;6.972;2023-05-10T14:21:52;1.65;;;0.90;;
15635;SDS011;7917;50.818;6.972;2023-05-10T14:24:19;1.30;;;1.15;;
15635;SDS011;7917;50.818;6.972;2023-05-10T14:26:46;4.40;;;1.10;;
15635;SDS011;7917;50.818;6.972;2023-05-10T14:29:13;4.20;;;1.17;;
15635;SDS011;7917;50.818;6.972;2023-05-10T14:31:40;1.23;;;0.95;;
15635;SDS011;7917;50.818;6.972;2023-05-10T14:34:07;3.80;;;1.25;;
15635;SDS011;7917;50.818;6.972;2023-05-10T14:36:34;1.85;;;1.15;;
15635;SDS011;7917;50.818;6.972;2023-05-10T14:39:01;1.95;;;1.17;;
15635;SDS011;7917;50.818;6.972;2023-05-10T14:41:28;1.20;;;1.10;;
15635;SDS011;7917;50.818;6.972;2023-05-10T14:43:55;2.47;;;1.05;;
15635;SDS011;7917;50.818;6.972;2023-05-10T14:46:22;1.67;;;1.38;;
15635;SDS011;7917;50.818;6.972;2023-05-10T14:48:50;1.90;;;1.67;;
15635;SDS011;7917;50.818;6.972;2023-05-10T14:55:05;2.17;;;1.60;;
15635;SDS011;7917;50.818;6.972;2023-05-10T14:57:32;1.60;;;1.50;;
15635;SDS011;7917;50.818;6.972;2023-05-10T15:02:57;1.65;;;1.20;;
15635;SDS011;7917;50.818;6.972;2023-05-10T15:08:46;2.22;;;1.52;;
15635;SDS011;7917;50.818;6.972;2023-05-10T15:18:43;2.92;;;1.80;;
15635;SDS011;7917;50.818;6.972;2023-05-10T15:26:50;2.22;;;2.03;;
15635;SDS011;7917;50.818;6.972;2023-05-10T15:30:47;2.25;;;2.00;;
15635;SDS011;7917;50.818;6.972;2023-05-10T15:33:10;2.35;;;2.00;;
15635;SDS011;7917;50.818;6.972;2023-05-10T15:35:37;2.35;;;1.80;;
15635;SDS011;7917;50.818;6.972;2023-05-10T15:41:29;2.45;;;1.90;;
15635;SDS011;7917;50.818;6.972;2023-05-10T15:43:55;4.75;;;2.30;;
15635;SDS011;7917;50.818;6.972;2023-05-10T15:46:24;3.72;;;1.80;;
15635;SDS011;7917;50.818;6.972;2023-05-10T15:51:39;2.47;;;2.22;;
15635;SDS011;7917;50.818;6.972;2023-05-10T15:54:06;3.50;;;2.30;;
15635;SDS011;7917;50.818;6.972;2023-05-10T15:56:34;3.75;;;2.28;;
15635;SDS011;7917;50.818;6.972;2023-05-10T15:59:01;2.92;;;2.25;;
15635;SDS011;7917;50.818;6.972;2023-05-10T16:01:31;3.00;;;2.42;;
15635;SDS011;7917;50.818;6.972;2023-05-10T16:03:58;3.58;;;2.38;;
15635;SDS011;7917;50.818;6.972;2023-05-10T16:06:25;5.75;;;3.40;;
15635;SDS011;7917;50.818;6.972;2023-05-10T16:08:52;5.57;;;3.92;;
15635;SDS011;7917;50.818;6.972;2023-05-10T16:11:21;4.50;;;2.88;;
15635;SDS011;7917;50.818;6.972;2023-05-10T16:13:49;3.55;;;2.50;;
15635;SDS011;7917;50.818;6.972;2023-05-10T16:18:54;5.63;;;2.90;;
15635;SDS011;7917;50.818;6.972;2023-05-10T16:21:21;2.95;;;2.28;;
15635;SDS011;7917;50.818;6.972;2023-05-10T16:23:48;4.40;;;2.70;;
15635;SDS011;7917;50.818;6.972;2023-05-10T16:26:15;4.05;;;2.88;;
15635;SDS011;7917;50.818;6.972;2023-05-10T16:28:49;3.63;;;2.30;;
15635;SDS011;7917;50.818;6.972;2023-05-10T16:31:15;3.92;;;2.70;;
15635;SDS011;7917;50.818;6.972;2023-05-10T16:33:42;6.13;;;3.00;;
15635;SDS011;7917;50.818;6.972;2023-05-10T16:36:10;3.10;;;2.78;;
15635;SDS011;7917;50.818;6.972;2023-05-10T16:38:36;5.05;;;3.20;;
15635;SDS011;7917;50.818;6.972;2023-05-10T16:41:03;3.03;;;2.65;;
15635;SDS011;7917;50.818;6.972;2023-05-10T16:43:31;3.33;;;2.70;;
15635;SDS011;7917;50.818;6.972;2023-05-10T16:45:59;3.22;;;2.33;;
15635;SDS011;7917;50.818;6.972;2023-05-10T16:48:25;3.60;;;2.40;;
15635;SDS011;7917;50.818;6.972;2023-05-10T16:50:53;2.53;;;1.92;;
15635;SDS011;7917;50.818;6.972;2023-05-10T16:53:19;4.63;;;2.40;;
15635;SDS011;7917;50.818;6.972;2023-05-10T16:55:46;5.72;;;2.15;;